sensor_id;sensor_type;location;lat;lon;timestamp;P1;durP1;ratioP1;P2;durP2;ratioP2
12900;SDS011;6518;50.930;5.344;2022-09-28T00:00:53;6.03;;;4.27;;
12900;SDS011;6518;50.930;5.344;2022-09-28T00:03:21;6.60;;;4.93;;
12900;SDS011;6518;50.930;5.344;2022-09-28T00:05:48;6.93;;;5.23;;
12900;SDS011;6518;50.930;5.344;2022-09-28T00:08:15;6.37;;;5.10;;
12900;SDS011;6518;50.930;5.344;2022-09-28T00:10:42;7.60;;;5.50;;
12900;SDS011;6518;50.930;5.344;2022-09-28T00:13:09;5.93;;;5.33;;
12900;SDS011;6518;50.930;5.344;2022-09-28T00:15:36;7.20;;;5.47;;
12900;SDS011;6518;50.930;5.344;2022-09-28T00:18:03;8.73;;;6.00;;
12900;SDS011;6518;50.930;5.344;2022-09-28T00:20:32;8.67;;;6.30;;
12900;SDS011;6518;50.930;5.344;2022-09-28T00:22:59;9.40;;;6.27;;
12900;SDS011;6518;50.930;5.344;2022-09-28T00:25:25;8.13;;;6.90;;
12900;SDS011;6518;50.930;5.344;2022-09-28T00:27:54;7.27;;;6.43;;
12900;SDS011;6518;50.930;5.344;2022-09-28T00:30:22;7.63;;;6.77;;
12900;SDS011;6518;50.930;5.344;2022-09-28T00:32:49;8.80;;;7.17;;
12900;SDS011;6518;50.930;5.344;2022-09-28T00:35:16;9.50;;;7.50;;
12900;SDS011;6518;50.930;5.344;2022-09-28T00:37:45;8.47;;;7.00;;
12900;SDS011;6518;50.930;5.344;2022-09-28T00:40:14;9.10;;;7.47;;
12900;SDS011;6518;50.930;5.344;2022-09-28T00:42:42;9.90;;;8.17;;
12900;SDS011;6518;50.930;5.344;2022-09-28T00:45:09;8.47;;;7.30;;
12900;SDS011;6518;50.930;5.344;2022-09-28T00:47:40;10.07;;;7.67;;
12900;SDS011;6518;50.930;5.344;2022-09-28T00:50:11;9.57;;;7.17;;
12900;SDS011;6518;50.930;5.344;2022-09-28T00:52:45;8.27;;;7.43;;
12900;SDS011;6518;50.930;5.344;2022-09-28T00:55:18;10.50;;;7.60;;
12900;SDS011;6518;50.930;5.344;2022-09-28T00:57:49;8.37;;;7.40;;
12900;SDS011;6518;50.930;5.344;2022-09-28T01:00:19;10.80;;;7.23;;
12900;SDS011;6518;50.930;5.344;2022-09-28T01:02:46;9.10;;;7.60;;
12900;SDS011;6518;50.930;5.344;2022-09-28T01:05:13;8.40;;;7.00;;
12900;SDS011;6518;50.930;5.344;2022-09-28T01:07:41;8.50;;;7.27;;
12900;SDS011;6518;50.930;5.344;2022-09-28T01:10:11;9.97;;;6.67;;
12900;SDS011;6518;50.930;5.344;2022-09-28T01:12:39;7.77;;;6.63;;
12900;SDS011;6518;50.930;5.344;2022-09-28T01:15:06;8.83;;;6.40;;
12900;SDS011;6518;50.930;5.344;2022-09-28T01:17:36;8.87;;;6.63;;
12900;SDS011;6518;50.930;5.344;2022-09-28T01:20:25;7.43;;;6.43;;
12900;SDS011;6518;50.930;5.344;2022-09-28T01:26:43;10.03;;;6.90;;
12900;SDS011;6518;50.930;5.344;2022-09-28T01:29:18;7.03;;;6.33;;
12900;SDS011;6518;50.930;5.344;2022-09-28T01:31:54;7.00;;;6.00;;
12900;SDS011;6518;50.930;5.344;2022-09-28T01:34:27;6.77;;;5.53;;
12900;SDS011;6518;50.930;5.344;2022-09-28T01:37:00;7.87;;;5.70;;
12900;SDS011;6518;50.930;5.344;2022-09-28T01:39:32;7.73;;;5.60;;
12900;SDS011;6518;50.930;5.344;2022-09-28T01:42:06;5.97;;;5.37;;
12900;SDS011;6518;50.930;5.344;2022-09-28T01:44:37;7.93;;;5.33;;
12900;SDS011;6518;50.930;5.344;2022-09-28T01:47:06;6.63;;;5.37;;
12900;SDS011;6518;50.930;5.344;2022-09-28T01:49:37;6.83;;;5.37;;
12900;SDS011;6518;50.930;5.344;2022-09-28T01:52:09;6.43;;;5.20;;
12900;SDS011;6518;50.930;5.344;2022-09-28T01:54:40;6.53;;;4.87;;
12900;SDS011;6518;50.930;5.344;2022-09-28T01:57:13;9.33;;;5.20;;
12900;SDS011;6518;50.930;5.344;2022-09-28T01:59:44;5.43;;;4.90;;
12900;SDS011;6518;50.930;5.344;2022-09-28T02:02:17;6.77;;;4.80;;
12900;SDS011;6518;50.930;5.344;2022-09-28T02:04:49;5.20;;;4.70;;
12900;SDS011;6518;50.930;5.344;2022-09-28T02:07:22;5.97;;;4.80;;
12900;SDS011;6518;50.930;5.344;2022-09-28T02:09:52;6.07;;;4.63;;
12900;SDS011;6518;50.930;5.344;2022-09-28T02:12:25;10.63;;;5.20;;
12900;SDS011;6518;50.930;5.344;2022-09-28T02:15:01;5.27;;;4.53;;
12900;SDS011;6518;50.930;5.344;2022-09-28T02:17:35;6.40;;;4.80;;
12900;SDS011;6518;50.930;5.344;2022-09-28T02:20:02;6.83;;;4.47;;
12900;SDS011;6518;50.930;5.344;2022-09-28T02:22:31;7.57;;;4.97;;
12900;SDS011;6518;50.930;5.344;2022-09-28T02:25:02;5.87;;;4.90;;
12900;SDS011;6518;50.930;5.344;2022-09-28T02:27:36;4.40;;;4.00;;
12900;SDS011;6518;50.930;5.344;2022-09-28T02:30:08;5.73;;;4.60;;
12900;SDS011;6518;50.930;5.344;2022-09-28T02:32:36;4.90;;;4.30;;
12900;SDS011;6518;50.930;5.344;2022-09-28T02:35:06;4.47;;;3.77;;
12900;SDS011;6518;50.930;5.344;2022-09-28T02:37:35;5.80;;;4.40;;
12900;SDS011;6518;50.930;5.344;2022-09-28T02:40:08;5.93;;;4.13;;
12900;SDS011;6518;50.930;5.344;2022-09-28T02:42:41;5.27;;;3.93;;
12900;SDS011;6518;50.930;5.344;2022-09-28T02:45:20;6.77;;;3.83;;
12900;SDS011;6518;50.930;5.344;2022-09-28T02:48:00;5.30;;;3.87;;
12900;SDS011;6518;50.930;5.344;2022-09-28T02:50:38;4.63;;;3.90;;
12900;SDS011;6518;50.930;5.344;2022-09-28T02:53:19;4.97;;;3.63;;
12900;SDS011;6518;50.930;5.344;2022-09-28T02:56:15;4.70;;;3.50;;
12900;SDS011;6518;50.930;5.344;2022-09-28T02:58:57;5.03;;;3.50;;
12900;SDS011;6518;50.930;5.344;2022-09-28T03:01:33;8.30;;;3.77;;
12900;SDS011;6518;50.930;5.344;2022-09-28T03:04:07;3.83;;;3.37;;
12900;SDS011;6518;50.930;5.344;2022-09-28T03:06:40;6.03;;;3.70;;
12900;SDS011;6518;50.930;5.344;2022-09-28T03:09:13;6.00;;;3.70;;
12900;SDS011;6518;50.930;5.344;2022-09-28T03:11:45;5.90;;;3.60;;
12900;SDS011;6518;50.930;5.344;2022-09-28T03:14:17;5.30;;;3.70;;
12900;SDS011;6518;50.930;5.344;2022-09-28T03:16:44;5.17;;;3.57;;
12900;SDS011;6518;50.930;5.344;2022-09-28T03:19:12;7.03;;;3.50;;
12900;SDS011;6518;50.930;5.344;2022-09-28T03:21:40;4.83;;;3.80;;
12900;SDS011;6518;50.930;5.344;2022-09-28T03:24:07;5.47;;;4.23;;
12900;SDS011;6518;50.930;5.344;2022-09-28T03:26:35;4.93;;;4.30;;
12900;SDS011;6518;50.930;5.344;2022-09-28T03:29:02;6.13;;;4.83;;
12900;SDS011;6518;50.930;5.344;2022-09-28T03:31:30;7.03;;;4.50;;
12900;SDS011;6518;50.930;5.344;2022-09-28T03:33:57;7.93;;;4.83;;
12900;SDS011;6518;50.930;5.344;2022-09-28T03:36:24;5.87;;;4.80;;
12900;SDS011;6518;50.930;5.344;2022-09-28T03:38:50;5.77;;;5.17;;
12900;SDS011;6518;50.930;5.344;2022-09-28T03:41:19;7.63;;;5.17;;
12900;SDS011;6518;50.930;5.344;2022-09-28T03:43:46;7.83;;;5.77;;
12900;SDS011;6518;50.930;5.344;2022-09-28T03:46:13;7.50;;;6.20;;
12900;SDS011;6518;50.930;5.344;2022-09-28T03:48:42;8.60;;;7.03;;
12900;SDS011;6518;50.930;5.344;2022-09-28T03:51:09;8.33;;;6.93;;
12900;SDS011;6518;50.930;5.344;2022-09-28T03:53:37;8.57;;;7.63;;
12900;SDS011;6518;50.930;5.344;2022-09-28T03:56:05;10.03;;;8.20;;
12900;SDS011;6518;50.930;5.344;2022-09-28T03:58:33;9.53;;;8.10;;
12900;SDS011;6518;50.930;5.344;2022-09-28T04:01:00;9.57;;;8.30;;
12900;SDS011;6518;50.930;5.344;2022-09-28T04:03:28;10.07;;;8.73;;
12900;SDS011;6518;50.930;5.344;2022-09-28T04:05:56;11.97;;;9.07;;
12900;SDS011;6518;50.930;5.344;2022-09-28T04:08:23;10.97;;;8.67;;
12900;SDS011;6518;50.930;5.344;2022-09-28T04:10:50;11.17;;;9.00;;
12900;SDS011;6518;50.930;5.344;2022-09-28T04:13:17;10.37;;;9.27;;
12900;SDS011;6518;50.930;5.344;2022-09-28T04:15:50;9.50;;;8.27;;
12900;SDS011;6518;50.930;5.344;2022-09-28T04:18:18;10.87;;;8.50;;
12900;SDS011;6518;50.930;5.344;2022-09-28T04:20:45;9.77;;;8.77;;
12900;SDS011;6518;50.930;5.344;2022-09-28T04:23:13;9.57;;;8.67;;
12900;SDS011;6518;50.930;5.344;2022-09-28T04:25:40;9.47;;;8.53;;
12900;SDS011;6518;50.930;5.344;2022-09-28T04:28:09;10.43;;;9.33;;
12900;SDS011;6518;50.930;5.344;2022-09-28T04:30:54;11.70;;;9.10;;
12900;SDS011;6518;50.930;5.344;2022-09-28T04:33:20;11.17;;;9.47;;
12900;SDS011;6518;50.930;5.344;2022-09-28T04:35:47;11.30;;;9.40;;
12900;SDS011;6518;50.930;5.344;2022-09-28T04:38:15;11.57;;;9.43;;
12900;SDS011;6518;50.930;5.344;2022-09-28T04:40:42;9.93;;;8.93;;
12900;SDS011;6518;50.930;5.344;2022-09-28T04:43:09;10.07;;;9.07;;
12900;SDS011;6518;50.930;5.344;2022-09-28T04:45:36;12.80;;;10.37;;
12900;SDS011;6518;50.930;5.344;2022-09-28T04:48:04;12.13;;;9.53;;
12900;SDS011;6518;50.930;5.344;2022-09-28T04:50:32;11.03;;;9.17;;
12900;SDS011;6518;50.930;5.344;2022-09-28T04:52:59;11.17;;;9.77;;
12900;SDS011;6518;50.930;5.344;2022-09-28T04:55:27;13.30;;;10.47;;
12900;SDS011;6518;50.930;5.344;2022-09-28T04:57:56;11.20;;;10.00;;
12900;SDS011;6518;50.930;5.344;2022-09-28T05:00:24;11.73;;;9.10;;
12900;SDS011;6518;50.930;5.344;2022-09-28T05:02:52;12.63;;;9.63;;
12900;SDS011;6518;50.930;5.344;2022-09-28T05:05:19;12.17;;;10.03;;
12900;SDS011;6518;50.930;5.344;2022-09-28T05:07:46;11.70;;;9.63;;
12900;SDS011;6518;50.930;5.344;2022-09-28T05:10:13;11.23;;;10.03;;
12900;SDS011;6518;50.930;5.344;2022-09-28T05:12:41;11.80;;;10.50;;
12900;SDS011;6518;50.930;5.344;2022-09-28T05:15:08;11.90;;;9.27;;
12900;SDS011;6518;50.930;5.344;2022-09-28T05:17:36;12.33;;;10.17;;
12900;SDS011;6518;50.930;5.344;2022-09-28T05:20:03;14.43;;;9.77;;
12900;SDS011;6518;50.930;5.344;2022-09-28T05:22:31;12.47;;;10.10;;
12900;SDS011;6518;50.930;5.344;2022-09-28T05:24:58;12.83;;;10.03;;
12900;SDS011;6518;50.930;5.344;2022-09-28T05:27:27;9.97;;;8.97;;
12900;SDS011;6518;50.930;5.344;2022-09-28T05:29:55;11.83;;;9.83;;
12900;SDS011;6518;50.930;5.344;2022-09-28T05:32:22;12.83;;;10.30;;
12900;SDS011;6518;50.930;5.344;2022-09-28T05:34:49;10.73;;;9.63;;
12900;SDS011;6518;50.930;5.344;2022-09-28T05:37:15;13.93;;;9.63;;
12900;SDS011;6518;50.930;5.344;2022-09-28T05:39:42;11.27;;;9.37;;
12900;SDS011;6518;50.930;5.344;2022-09-28T05:42:09;10.67;;;9.57;;
12900;SDS011;6518;50.930;5.344;2022-09-28T05:44:36;12.57;;;9.60;;
12900;SDS011;6518;50.930;5.344;2022-09-28T05:47:04;10.97;;;9.43;;
12900;SDS011;6518;50.930;5.344;2022-09-28T05:49:31;10.90;;;9.80;;
12900;SDS011;6518;50.930;5.344;2022-09-28T05:51:58;11.33;;;9.17;;
12900;SDS011;6518;50.930;5.344;2022-09-28T05:54:25;12.53;;;9.13;;
12900;SDS011;6518;50.930;5.344;2022-09-28T05:56:51;12.27;;;9.60;;
12900;SDS011;6518;50.930;5.344;2022-09-28T05:59:18;11.00;;;9.40;;
12900;SDS011;6518;50.930;5.344;2022-09-28T06:01:45;14.03;;;10.20;;
12900;SDS011;6518;50.930;5.344;2022-09-28T06:04:13;11.63;;;9.83;;
12900;SDS011;6518;50.930;5.344;2022-09-28T06:06:41;11.60;;;9.20;;
12900;SDS011;6518;50.930;5.344;2022-09-28T06:09:07;13.90;;;9.60;;
12900;SDS011;6518;50.930;5.344;2022-09-28T06:11:34;20.63;;;13.77;;
12900;SDS011;6518;50.930;5.344;2022-09-28T06:14:01;27.50;;;14.70;;
12900;SDS011;6518;50.930;5.344;2022-09-28T06:16:29;19.63;;;13.70;;
12900;SDS011;6518;50.930;5.344;2022-09-28T06:18:55;12.33;;;8.60;;
12900;SDS011;6518;50.930;5.344;2022-09-28T06:21:23;14.03;;;10.43;;
12900;SDS011;6518;50.930;5.344;2022-09-28T06:23:50;11.80;;;8.53;;
12900;SDS011;6518;50.930;5.344;2022-09-28T06:26:17;12.47;;;7.00;;
12900;SDS011;6518;50.930;5.344;2022-09-28T06:28:44;12.77;;;8.57;;
12900;SDS011;6518;50.930;5.344;2022-09-28T06:31:11;15.23;;;10.07;;
12900;SDS011;6518;50.930;5.344;2022-09-28T06:33:38;8.93;;;6.53;;
12900;SDS011;6518;50.930;5.344;2022-09-28T06:36:06;7.57;;;5.47;;
12900;SDS011;6518;50.930;5.344;2022-09-28T06:38:34;7.80;;;5.93;;
12900;SDS011;6518;50.930;5.344;2022-09-28T06:41:02;9.13;;;6.80;;
12900;SDS011;6518;50.930;5.344;2022-09-28T06:43:29;9.67;;;6.50;;
12900;SDS011;6518;50.930;5.344;2022-09-28T06:45:57;7.60;;;5.00;;
12900;SDS011;6518;50.930;5.344;2022-09-28T06:48:24;11.13;;;8.70;;
12900;SDS011;6518;50.930;5.344;2022-09-28T06:50:51;9.53;;;7.10;;
12900;SDS011;6518;50.930;5.344;2022-09-28T06:53:18;6.50;;;5.27;;
12900;SDS011;6518;50.930;5.344;2022-09-28T06:55:49;5.87;;;4.10;;
12900;SDS011;6518;50.930;5.344;2022-09-28T06:58:16;4.93;;;3.77;;
12900;SDS011;6518;50.930;5.344;2022-09-28T07:00:45;6.50;;;4.00;;
12900;SDS011;6518;50.930;5.344;2022-09-28T07:03:13;5.53;;;3.87;;
12900;SDS011;6518;50.930;5.344;2022-09-28T07:05:42;5.83;;;4.00;;
12900;SDS011;6518;50.930;5.344;2022-09-28T07:08:11;5.40;;;3.43;;
12900;SDS011;6518;50.930;5.344;2022-09-28T07:10:40;5.30;;;3.37;;
12900;SDS011;6518;50.930;5.344;2022-09-28T07:13:09;5.40;;;3.60;;
12900;SDS011;6518;50.930;5.344;2022-09-28T07:15:37;6.67;;;3.23;;
12900;SDS011;6518;50.930;5.344;2022-09-28T07:18:05;4.87;;;2.93;;
12900;SDS011;6518;50.930;5.344;2022-09-28T07:20:33;6.17;;;3.10;;
12900;SDS011;6518;50.930;5.344;2022-09-28T07:23:02;4.73;;;2.97;;
12900;SDS011;6518;50.930;5.344;2022-09-28T07:25:31;4.47;;;3.10;;
12900;SDS011;6518;50.930;5.344;2022-09-28T07:27:59;6.00;;;3.27;;
12900;SDS011;6518;50.930;5.344;2022-09-28T07:30:29;7.53;;;3.37;;
12900;SDS011;6518;50.930;5.344;2022-09-28T07:32:58;4.40;;;2.83;;
12900;SDS011;6518;50.930;5.344;2022-09-28T07:35:26;3.60;;;2.87;;
12900;SDS011;6518;50.930;5.344;2022-09-28T07:37:56;5.13;;;3.17;;
12900;SDS011;6518;50.930;5.344;2022-09-28T07:40:25;3.37;;;2.60;;
12900;SDS011;6518;50.930;5.344;2022-09-28T07:43:09;2.27;;;2.07;;
12900;SDS011;6518;50.930;5.344;2022-09-28T07:45:38;4.57;;;2.77;;
12900;SDS011;6518;50.930;5.344;2022-09-28T07:48:08;6.27;;;2.70;;
12900;SDS011;6518;50.930;5.344;2022-09-28T07:50:35;3.83;;;2.50;;
12900;SDS011;6518;50.930;5.344;2022-09-28T07:53:01;5.63;;;2.40;;
12900;SDS011;6518;50.930;5.344;2022-09-28T07:55:29;6.03;;;3.03;;
12900;SDS011;6518;50.930;5.344;2022-09-28T07:57:56;5.20;;;2.60;;
12900;SDS011;6518;50.930;5.344;2022-09-28T08:00:23;7.47;;;3.07;;
12900;SDS011;6518;50.930;5.344;2022-09-28T08:02:52;5.10;;;2.60;;
12900;SDS011;6518;50.930;5.344;2022-09-28T08:05:19;3.90;;;2.53;;
12900;SDS011;6518;50.930;5.344;2022-09-28T08:07:46;6.87;;;2.63;;
12900;SDS011;6518;50.930;5.344;2022-09-28T08:10:13;6.63;;;2.90;;
12900;SDS011;6518;50.930;5.344;2022-09-28T08:12:41;4.87;;;2.70;;
12900;SDS011;6518;50.930;5.344;2022-09-28T08:15:08;3.50;;;2.40;;
12900;SDS011;6518;50.930;5.344;2022-09-28T08:17:36;3.40;;;2.77;;
12900;SDS011;6518;50.930;5.344;2022-09-28T08:20:04;4.87;;;2.93;;
12900;SDS011;6518;50.930;5.344;2022-09-28T08:22:49;4.47;;;2.87;;
12900;SDS011;6518;50.930;5.344;2022-09-28T08:25:16;5.83;;;2.67;;
12900;SDS011;6518;50.930;5.344;2022-09-28T08:27:43;5.30;;;3.13;;
12900;SDS011;6518;50.930;5.344;2022-09-28T08:30:10;5.87;;;3.20;;
12900;SDS011;6518;50.930;5.344;2022-09-28T08:32:37;5.97;;;3.07;;
12900;SDS011;6518;50.930;5.344;2022-09-28T08:35:08;5.20;;;2.60;;
12900;SDS011;6518;50.930;5.344;2022-09-28T08:37:34;6.47;;;2.77;;
12900;SDS011;6518;50.930;5.344;2022-09-28T08:40:01;4.40;;;2.83;;
12900;SDS011;6518;50.930;5.344;2022-09-28T08:42:30;5.40;;;2.77;;
12900;SDS011;6518;50.930;5.344;2022-09-28T08:45:04;6.23;;;2.67;;
12900;SDS011;6518;50.930;5.344;2022-09-28T08:47:34;4.80;;;2.60;;
12900;SDS011;6518;50.930;5.344;2022-09-28T08:50:31;7.43;;;3.53;;
12900;SDS011;6518;50.930;5.344;2022-09-28T08:53:02;5.97;;;2.37;;
12900;SDS011;6518;50.930;5.344;2022-09-28T08:55:38;5.27;;;2.60;;
12900;SDS011;6518;50.930;5.344;2022-09-28T08:58:09;4.43;;;2.10;;
12900;SDS011;6518;50.930;5.344;2022-09-28T09:00:40;5.40;;;2.50;;
12900;SDS011;6518;50.930;5.344;2022-09-28T09:03:12;5.20;;;2.63;;
12900;SDS011;6518;50.930;5.344;2022-09-28T09:05:45;4.97;;;2.10;;
12900;SDS011;6518;50.930;5.344;2022-09-28T09:08:24;4.90;;;1.80;;
12900;SDS011;6518;50.930;5.344;2022-09-28T09:10:59;4.47;;;1.60;;
12900;SDS011;6518;50.930;5.344;2022-09-28T09:13:44;3.73;;;1.87;;
12900;SDS011;6518;50.930;5.344;2022-09-28T09:16:28;3.67;;;1.70;;
12900;SDS011;6518;50.930;5.344;2022-09-28T09:19:05;4.20;;;1.80;;
12900;SDS011;6518;50.930;5.344;2022-09-28T09:21:43;3.77;;;1.60;;
12900;SDS011;6518;50.930;5.344;2022-09-28T09:24:22;4.23;;;1.77;;
12900;SDS011;6518;50.930;5.344;2022-09-28T09:26:54;2.70;;;1.70;;
12900;SDS011;6518;50.930;5.344;2022-09-28T09:29:28;4.10;;;1.93;;
12900;SDS011;6518;50.930;5.344;2022-09-28T09:32:08;6.53;;;2.23;;
12900;SDS011;6518;50.930;5.344;2022-09-28T09:34:51;5.53;;;1.73;;
12900;SDS011;6518;50.930;5.344;2022-09-28T09:37:37;5.73;;;1.70;;
12900;SDS011;6518;50.930;5.344;2022-09-28T09:40:23;2.30;;;1.20;;
12900;SDS011;6518;50.930;5.344;2022-09-28T09:43:03;5.40;;;1.50;;
12900;SDS011;6518;50.930;5.344;2022-09-28T09:45:47;5.53;;;2.17;;
12900;SDS011;6518;50.930;5.344;2022-09-28T09:48:28;5.30;;;1.50;;
12900;SDS011;6518;50.930;5.344;2022-09-28T09:50:59;3.70;;;1.33;;
12900;SDS011;6518;50.930;5.344;2022-09-28T09:53:32;4.20;;;1.57;;
12900;SDS011;6518;50.930;5.344;2022-09-28T09:56:06;5.90;;;1.70;;
12900;SDS011;6518;50.930;5.344;2022-09-28T09:58:42;5.77;;;1.90;;
12900;SDS011;6518;50.930;5.344;2022-09-28T10:01:13;4.63;;;1.60;;
12900;SDS011;6518;50.930;5.344;2022-09-28T10:03:44;5.03;;;1.67;;
12900;SDS011;6518;50.930;5.344;2022-09-28T10:06:15;4.30;;;1.30;;
12900;SDS011;6518;50.930;5.344;2022-09-28T10:08:47;2.70;;;1.20;;
12900;SDS011;6518;50.930;5.344;2022-09-28T10:11:18;3.00;;;1.50;;
12900;SDS011;6518;50.930;5.344;2022-09-28T10:13:51;3.43;;;1.30;;
12900;SDS011;6518;50.930;5.344;2022-09-28T10:16:18;3.97;;;1.50;;
12900;SDS011;6518;50.930;5.344;2022-09-28T10:18:45;4.73;;;1.40;;
12900;SDS011;6518;50.930;5.344;2022-09-28T10:21:13;3.73;;;1.33;;
12900;SDS011;6518;50.930;5.344;2022-09-28T10:23:42;4.40;;;1.83;;
12900;SDS011;6518;50.930;5.344;2022-09-28T10:26:13;4.27;;;1.57;;
12900;SDS011;6518;50.930;5.344;2022-09-28T10:28:50;4.67;;;1.53;;
12900;SDS011;6518;50.930;5.344;2022-09-28T10:31:32;6.33;;;1.40;;
12900;SDS011;6518;50.930;5.344;2022-09-28T10:34:01;5.30;;;1.40;;
12900;SDS011;6518;50.930;5.344;2022-09-28T10:36:28;3.83;;;1.50;;
12900;SDS011;6518;50.930;5.344;2022-09-28T10:39:02;5.65;;;1.80;;
12900;SDS011;6518;50.930;5.344;2022-09-28T10:41:31;4.65;;;1.38;;
12900;SDS011;6518;50.930;5.344;2022-09-28T10:44:00;4.03;;;1.60;;
12900;SDS011;6518;50.930;5.344;2022-09-28T10:46:32;4.45;;;1.23;;
12900;SDS011;6518;50.930;5.344;2022-09-28T10:49:02;3.43;;;1.13;;
12900;SDS011;6518;50.930;5.344;2022-09-28T10:51:38;3.83;;;1.50;;
12900;SDS011;6518;50.930;5.344;2022-09-28T10:54:09;3.38;;;1.45;;
12900;SDS011;6518;50.930;5.344;2022-09-28T10:56:41;3.50;;;1.43;;
12900;SDS011;6518;50.930;5.344;2022-09-28T11:02:16;4.80;;;1.70;;
12900;SDS011;6518;50.930;5.344;2022-09-28T11:04:51;2.97;;;1.20;;
12900;SDS011;6518;50.930;5.344;2022-09-28T11:07:21;8.10;;;1.70;;
12900;SDS011;6518;50.930;5.344;2022-09-28T11:09:51;6.47;;;1.30;;
12900;SDS011;6518;50.930;5.344;2022-09-28T11:12:21;2.10;;;0.90;;
12900;SDS011;6518;50.930;5.344;2022-09-28T11:14:54;5.97;;;1.13;;
12900;SDS011;6518;50.930;5.344;2022-09-28T11:17:25;3.53;;;1.30;;
12900;SDS011;6518;50.930;5.344;2022-09-28T11:19:53;2.33;;;1.27;;
12900;SDS011;6518;50.930;5.344;2022-09-28T11:22:22;4.50;;;1.43;;
12900;SDS011;6518;50.930;5.344;2022-09-28T11:27:40;10.55;;;1.30;;
12900;SDS011;6518;50.930;5.344;2022-09-28T11:30:20;4.20;;;1.20;;
12900;SDS011;6518;50.930;5.344;2022-09-28T11:32:48;2.57;;;1.23;;
12900;SDS011;6518;50.930;5.344;2022-09-28T11:35:18;4.20;;;1.60;;
12900;SDS011;6518;50.930;5.344;2022-09-28T11:38:02;3.60;;;1.17;;
12900;SDS011;6518;50.930;5.344;2022-09-28T11:40:44;5.37;;;1.53;;
12900;SDS011;6518;50.930;5.344;2022-09-28T11:43:24;14.60;;;2.77;;
12900;SDS011;6518;50.930;5.344;2022-09-28T11:46:07;11.07;;;2.00;;
12900;SDS011;6518;50.930;5.344;2022-09-28T11:48:41;4.10;;;1.30;;
12900;SDS011;6518;50.930;5.344;2022-09-28T11:51:14;21.57;;;3.00;;
12900;SDS011;6518;50.930;5.344;2022-09-28T11:53:44;3.80;;;1.23;;
12900;SDS011;6518;50.930;5.344;2022-09-28T11:56:17;4.57;;;1.20;;
12900;SDS011;6518;50.930;5.344;2022-09-28T11:58:56;2.17;;;1.10;;
12900;SDS011;6518;50.930;5.344;2022-09-28T12:01:27;2.57;;;1.10;;
12900;SDS011;6518;50.930;5.344;2022-09-28T12:04:01;3.97;;;1.30;;
12900;SDS011;6518;50.930;5.344;2022-09-28T12:06:33;3.77;;;1.50;;
12900;SDS011;6518;50.930;5.344;2022-09-28T12:09:06;3.23;;;1.10;;
12900;SDS011;6518;50.930;5.344;2022-09-28T12:11:41;6.57;;;1.33;;
12900;SDS011;6518;50.930;5.344;2022-09-28T12:14:14;4.60;;;1.50;;
12900;SDS011;6518;50.930;5.344;2022-09-28T12:16:46;6.57;;;1.33;;
12900;SDS011;6518;50.930;5.344;2022-09-28T12:19:19;5.83;;;1.47;;
12900;SDS011;6518;50.930;5.344;2022-09-28T12:21:51;2.10;;;1.00;;
12900;SDS011;6518;50.930;5.344;2022-09-28T12:24:22;3.77;;;1.30;;
12900;SDS011;6518;50.930;5.344;2022-09-28T12:26:53;4.60;;;1.20;;
12900;SDS011;6518;50.930;5.344;2022-09-28T12:29:25;2.67;;;1.00;;
12900;SDS011;6518;50.930;5.344;2022-09-28T12:31:59;5.60;;;1.80;;
12900;SDS011;6518;50.930;5.344;2022-09-28T12:34:32;3.25;;;1.10;;
12900;SDS011;6518;50.930;5.344;2022-09-28T12:37:05;4.15;;;1.48;;
12900;SDS011;6518;50.930;5.344;2022-09-28T12:39:47;2.20;;;1.07;;
12900;SDS011;6518;50.930;5.344;2022-09-28T12:42:31;2.17;;;1.00;;
12900;SDS011;6518;50.930;5.344;2022-09-28T12:45:16;2.97;;;1.10;;
12900;SDS011;6518;50.930;5.344;2022-09-28T12:48:03;3.38;;;1.30;;
12900;SDS011;6518;50.930;5.344;2022-09-28T12:50:46;6.20;;;1.30;;
12900;SDS011;6518;50.930;5.344;2022-09-28T12:53:29;2.50;;;0.93;;
12900;SDS011;6518;50.930;5.344;2022-09-28T12:56:12;5.10;;;1.10;;
12900;SDS011;6518;50.930;5.344;2022-09-28T12:58:47;2.10;;;1.00;;
12900;SDS011;6518;50.930;5.344;2022-09-28T13:01:31;4.10;;;1.30;;
12900;SDS011;6518;50.930;5.344;2022-09-28T13:04:25;2.70;;;1.23;;
12900;SDS011;6518;50.930;5.344;2022-09-28T13:07:08;5.57;;;1.40;;
12900;SDS011;6518;50.930;5.344;2022-09-28T13:09:45;4.97;;;0.80;;
12900;SDS011;6518;50.930;5.344;2022-09-28T13:12:25;2.60;;;1.10;;
12900;SDS011;6518;50.930;5.344;2022-09-28T13:15:06;2.33;;;0.93;;
12900;SDS011;6518;50.930;5.344;2022-09-28T13:17:47;3.23;;;1.20;;
12900;SDS011;6518;50.930;5.344;2022-09-28T13:20:30;4.20;;;1.20;;
12900;SDS011;6518;50.930;5.344;2022-09-28T13:23:09;2.43;;;0.87;;
12900;SDS011;6518;50.930;5.344;2022-09-28T13:25:41;2.27;;;0.80;;
12900;SDS011;6518;50.930;5.344;2022-09-28T13:28:13;3.33;;;1.00;;
12900;SDS011;6518;50.930;5.344;2022-09-28T13:30:43;4.67;;;1.67;;
12900;SDS011;6518;50.930;5.344;2022-09-28T13:33:14;4.50;;;1.03;;
12900;SDS011;6518;50.930;5.344;2022-09-28T13:35:45;2.33;;;0.93;;
12900;SDS011;6518;50.930;5.344;2022-09-28T13:41:17;2.20;;;0.80;;
12900;SDS011;6518;50.930;5.344;2022-09-28T13:47:02;3.73;;;0.93;;
12900;SDS011;6518;50.930;5.344;2022-09-28T13:49:43;2.33;;;0.70;;
12900;SDS011;6518;50.930;5.344;2022-09-28T13:52:27;3.17;;;1.00;;
12900;SDS011;6518;50.930;5.344;2022-09-28T13:55:08;3.90;;;0.90;;
12900;SDS011;6518;50.930;5.344;2022-09-28T13:57:44;3.33;;;1.23;;
12900;SDS011;6518;50.930;5.344;2022-09-28T14:00:17;1.88;;;1.08;;
12900;SDS011;6518;50.930;5.344;2022-09-28T14:02:51;2.13;;;0.90;;
12900;SDS011;6518;50.930;5.344;2022-09-28T14:08:29;2.77;;;1.20;;
12900;SDS011;6518;50.930;5.344;2022-09-28T14:14:23;2.17;;;1.00;;
12900;SDS011;6518;50.930;5.344;2022-09-28T14:20:15;3.77;;;1.20;;
12900;SDS011;6518;50.930;5.344;2022-09-28T14:25:57;2.17;;;1.10;;
12900;SDS011;6518;50.930;5.344;2022-09-28T14:28:45;3.67;;;1.50;;
12900;SDS011;6518;50.930;5.344;2022-09-28T14:31:23;4.50;;;1.30;;
12900;SDS011;6518;50.930;5.344;2022-09-28T14:33:53;2.83;;;1.20;;
12900;SDS011;6518;50.930;5.344;2022-09-28T14:36:23;3.00;;;1.20;;
12900;SDS011;6518;50.930;5.344;2022-09-28T14:39:18;2.27;;;1.20;;
12900;SDS011;6518;50.930;5.344;2022-09-28T14:42:08;3.07;;;1.87;;
12900;SDS011;6518;50.930;5.344;2022-09-28T14:48:03;5.00;;;1.83;;
12900;SDS011;6518;50.930;5.344;2022-09-28T14:50:37;2.57;;;1.50;;
12900;SDS011;6518;50.930;5.344;2022-09-28T14:53:05;2.13;;;1.23;;
12900;SDS011;6518;50.930;5.344;2022-09-28T14:55:39;3.30;;;1.60;;
12900;SDS011;6518;50.930;5.344;2022-09-28T14:58:14;3.53;;;1.57;;
12900;SDS011;6518;50.930;5.344;2022-09-28T15:00:47;3.77;;;1.57;;
12900;SDS011;6518;50.930;5.344;2022-09-28T15:03:18;3.93;;;1.17;;
12900;SDS011;6518;50.930;5.344;2022-09-28T15:05:47;2.47;;;1.30;;
12900;SDS011;6518;50.930;5.344;2022-09-28T15:08:14;2.83;;;1.40;;
12900;SDS011;6518;50.930;5.344;2022-09-28T15:10:46;3.73;;;1.57;;
12900;SDS011;6518;50.930;5.344;2022-09-28T15:13:16;3.13;;;1.43;;
12900;SDS011;6518;50.930;5.344;2022-09-28T15:15:50;3.43;;;1.40;;
12900;SDS011;6518;50.930;5.344;2022-09-28T15:18:26;2.77;;;1.50;;
12900;SDS011;6518;50.930;5.344;2022-09-28T15:21:08;2.83;;;1.33;;
12900;SDS011;6518;50.930;5.344;2022-09-28T15:23:36;1.80;;;1.00;;
12900;SDS011;6518;50.930;5.344;2022-09-28T15:26:06;1.97;;;1.20;;
12900;SDS011;6518;50.930;5.344;2022-09-28T15:28:47;3.43;;;1.23;;
12900;SDS011;6518;50.930;5.344;2022-09-28T15:31:15;4.73;;;1.10;;
12900;SDS011;6518;50.930;5.344;2022-09-28T15:33:44;2.37;;;1.37;;
12900;SDS011;6518;50.930;5.344;2022-09-28T15:36:29;2.60;;;0.97;;
12900;SDS011;6518;50.930;5.344;2022-09-28T15:38:59;2.13;;;1.23;;
12900;SDS011;6518;50.930;5.344;2022-09-28T15:41:30;2.37;;;1.30;;
12900;SDS011;6518;50.930;5.344;2022-09-28T15:44:16;3.10;;;1.40;;
12900;SDS011;6518;50.930;5.344;2022-09-28T15:47:03;3.13;;;1.30;;
12900;SDS011;6518;50.930;5.344;2022-09-28T15:49:36;3.53;;;1.90;;
12900;SDS011;6518;50.930;5.344;2022-09-28T15:52:07;4.80;;;1.70;;
12900;SDS011;6518;50.930;5.344;2022-09-28T15:54:50;5.00;;;1.80;;
12900;SDS011;6518;50.930;5.344;2022-09-28T15:57:29;2.57;;;1.40;;